sensor_id;sensor_type;location;lat;lon;timestamp;pressure;altitude;pressure_sealevel;temperature;humidity
7918;BME280;4004;42.624;23.386;2023-12-20T00:01:18;94558.66;;;0.37;100.00
7918;BME280;4004;42.624;23.386;2023-12-20T00:03:45;94557.59;;;0.38;100.00
7918;BME280;4004;42.624;23.386;2023-12-20T00:06:12;94554.38;;;0.41;100.00
7918;BME280;4004;42.624;23.386;2023-12-20T00:08:39;94546.94;;;0.44;100.00
7918;BME280;4004;42.624;23.386;2023-12-20T00:11:06;94541.66;;;0.44;100.00
7918;BME280;4004;42.624;23.386;2023-12-20T00:13:34;94541.94;;;0.42;100.00
7918;BME280;4004;42.624;23.386;2023-12-20T00:16:01;94543.94;;;0.26;100.00
7918;BME280;4004;42.624;23.386;2023-12-20T00:18:28;94540.25;;;0.27;100.00
7918;BME280;4004;42.624;23.386;2023-12-20T00:20:55;94537.50;;;0.37;100.00
7918;BME280;4004;42.624;23.386;2023-12-20T00:23:22;94534.38;;;0.30;100.00
7918;BME280;4004;42.624;23.386;2023-12-20T00:25:49;94529.16;;;0.25;100.00
7918;BME280;4004;42.624;23.386;2023-12-20T00:28:16;94525.06;;;0.09;100.00
7918;BME280;4004;42.624;23.386;2023-12-20T00:30:45;94525.06;;;0.09;100.00
7918;BME280;4004;42.624;23.386;2023-12-20T00:33:12;94518.13;;;0.18;100.00
7918;BME280;4004;42.624;23.386;2023-12-20T00:35:38;94520.25;;;0.16;100.00
7918;BME280;4004;42.624;23.386;2023-12-20T00:38:05;94512.53;;;0.19;100.00
7918;BME280;4004;42.624;23.386;2023-12-20T00:40:34;94506.97;;;0.21;100.00
7918;BME280;4004;42.624;23.386;2023-12-20T00:43:01;94497.06;;;0.08;100.00
7918;BME280;4004;42.624;23.386;2023-12-20T00:45:27;94491.78;;;0.08;100.00
7918;BME280;4004;42.624;23.386;2023-12-20T00:47:56;94482.44;;;-0.09;100.00
7918;BME280;4004;42.624;23.386;2023-12-20T00:50:23;94487.41;;;-0.07;100.00
7918;BME280;4004;42.624;23.386;2023-12-20T00:52:49;94488.78;;;-0.10;100.00
7918;BME280;4004;42.624;23.386;2023-12-20T00:55:16;94488.25;;;-0.12;100.00
7918;BME280;4004;42.624;23.386;2023-12-20T00:57:43;94483.53;;;-0.15;100.00
7918;BME280;4004;42.624;23.386;2023-12-20T01:00:11;94481.59;;;-0.04;100.00
7918;BME280;4004;42.624;23.386;2023-12-20T01:02:38;94489.59;;;-0.14;100.00
7918;BME280;4004;42.624;23.386;2023-12-20T01:05:07;94482.75;;;-0.15;100.00
7918;BME280;4004;42.624;23.386;2023-12-20T01:07:35;94479.34;;;-0.21;100.00
7918;BME280;4004;42.624;23.386;2023-12-20T01:10:01;94474.31;;;-0.17;100.00
7918;BME280;4004;42.624;23.386;2023-12-20T01:12:28;94465.03;;;-0.15;100.00
7918;BME280;4004;42.624;23.386;2023-12-20T01:14:55;94473.47;;;-0.13;100.00
7918;BME280;4004;42.624;23.386;2023-12-20T01:17:24;94470.00;;;-0.08;100.00
7918;BME280;4004;42.624;23.386;2023-12-20T01:19:50;94466.56;;;-0.09;100.00
7918;BME280;4004;42.624;23.386;2023-12-20T01:22:19;94470.84;;;-0.13;100.00
7918;BME280;4004;42.624;23.386;2023-12-20T01:24:46;94463.41;;;-0.11;100.00
7918;BME280;4004;42.624;23.386;2023-12-20T01:27:12;94458.50;;;-0.23;100.00
7918;BME280;4004;42.624;23.386;2023-12-20T01:29:39;94463.41;;;-0.11;100.00
7918;BME280;4004;42.624;23.386;2023-12-20T01:32:06;94456.53;;;-0.12;100.00
7918;BME280;4004;42.624;23.386;2023-12-20T01:34:33;94456.34;;;-0.15;100.00
7918;BME280;4004;42.624;23.386;2023-12-20T01:37:01;94448.22;;;-0.24;100.00
7918;BME280;4004;42.624;23.386;2023-12-20T01:39:30;94442.44;;;-0.26;100.00
7918;BME280;4004;42.624;23.386;2023-12-20T01:41:57;94437.72;;;-0.34;100.00
7918;BME280;4004;42.624;23.386;2023-12-20T01:44:24;94439.78;;;-0.26;100.00
7918;BME280;4004;42.624;23.386;2023-12-20T01:46:52;94431.34;;;-0.28;100.00
7918;BME280;4004;42.624;23.386;2023-12-20T01:49:19;94431.06;;;-0.27;100.00
7918;BME280;4004;42.624;23.386;2023-12-20T01:51:46;94424.97;;;-0.27;100.00
7918;BME280;4004;42.624;23.386;2023-12-20T01:54:13;94424.13;;;-0.23;100.00
7918;BME280;4004;42.624;23.386;2023-12-20T01:56:42;94414.09;;;-0.21;100.00
7918;BME280;4004;42.624;23.386;2023-12-20T01:59:09;94408.06;;;-0.26;100.00
7918;BME280;4004;42.624;23.386;2023-12-20T02:01:36;94407.00;;;-0.25;100.00
7918;BME280;4004;42.624;23.386;2023-12-20T02:04:03;94400.25;;;-0.36;100.00
7918;BME280;4004;42.624;23.386;2023-12-20T02:06:30;94407.84;;;-0.30;100.00
7918;BME280;4004;42.624;23.386;2023-12-20T02:09:00;94402.00;;;-0.27;100.00
7918;BME280;4004;42.624;23.386;2023-12-20T02:11:27;94386.69;;;-0.30;100.00
7918;BME280;4004;42.624;23.386;2023-12-20T02:13:55;94403.25;;;-0.19;100.00
7918;BME280;4004;42.624;23.386;2023-12-20T02:16:22;94389.75;;;-0.17;100.00
7918;BME280;4004;42.624;23.386;2023-12-20T02:18:49;94391.06;;;-0.15;100.00
7918;BME280;4004;42.624;23.386;2023-12-20T02:21:16;94386.47;;;-0.09;100.00
7918;BME280;4004;42.624;23.386;2023-12-20T02:23:44;94381.59;;;-0.21;100.00
7918;BME280;4004;42.624;23.386;2023-12-20T02:26:12;94379.69;;;-0.15;100.00
7918;BME280;4004;42.624;23.386;2023-12-20T02:28:40;94386.81;;;-0.16;100.00
7918;BME280;4004;42.624;23.386;2023-12-20T02:31:06;94370.25;;;-0.22;100.00
7918;BME280;4004;42.624;23.386;2023-12-20T02:33:33;94377.94;;;-0.25;100.00
7918;BME280;4004;42.624;23.386;2023-12-20T02:36:00;94369.22;;;-0.26;100.00
7918;BME280;4004;42.624;23.386;2023-12-20T02:38:27;94363.78;;;-0.34;100.00
7918;BME280;4004;42.624;23.386;2023-12-20T02:40:55;94360.69;;;-0.42;100.00
7918;BME280;4004;42.624;23.386;2023-12-20T02:43:22;94354.81;;;-0.38;100.00
7918;BME280;4004;42.624;23.386;2023-12-20T02:45:49;94351.41;;;-0.39;100.00
7918;BME280;4004;42.624;23.386;2023-12-20T02:48:16;94351.56;;;-0.30;100.00
7918;BME280;4004;42.624;23.386;2023-12-20T02:50:43;94354.72;;;-0.28;100.00
7918;BME280;4004;42.624;23.386;2023-12-20T02:53:10;94351.31;;;-0.29;100.00
7918;BME280;4004;42.624;23.386;2023-12-20T02:55:36;94345.28;;;-0.34;100.00
7918;BME280;4004;42.624;23.386;2023-12-20T02:58:05;94347.91;;;-0.34;100.00
7918;BME280;4004;42.624;23.386;2023-12-20T03:00:32;94349.72;;;-0.30;100.00
7918;BME280;4004;42.624;23.386;2023-12-20T03:02:59;94347.06;;;-0.30;100.00
7918;BME280;4004;42.624;23.386;2023-12-20T03:05:26;94349.38;;;-0.23;100.00
7918;BME280;4004;42.624;23.386;2023-12-20T03:07:53;94345.72;;;-0.27;100.00
7918;BME280;4004;42.624;23.386;2023-12-20T03:10:20;94351.00;;;-0.27;100.00
7918;BME280;4004;42.624;23.386;2023-12-20T03:12:47;94346.75;;;-0.23;100.00
7918;BME280;4004;42.624;23.386;2023-12-20T03:15:15;94348.16;;;-0.31;100.00
7918;BME280;4004;42.624;23.386;2023-12-20T03:17:42;94336.00;;;-0.32;100.00
7918;BME280;4004;42.624;23.386;2023-12-20T03:20:09;94348.16;;;-0.31;100.00
7918;BME280;4004;42.624;23.386;2023-12-20T03:22:36;94348.75;;;-0.39;100.00
7918;BME280;4004;42.624;23.386;2023-12-20T03:25:03;94345.34;;;-0.39;100.00
7918;BME280;4004;42.624;23.386;2023-12-20T03:27:30;94326.66;;;-0.48;100.00
7918;BME280;4004;42.624;23.386;2023-12-20T03:29:57;94341.50;;;-0.52;100.00
7918;BME280;4004;42.624;23.386;2023-12-20T03:32:25;94337.50;;;-0.50;100.00
7918;BME280;4004;42.624;23.386;2023-12-20T03:34:52;94331.31;;;-0.64;100.00
7918;BME280;4004;42.624;23.386;2023-12-20T03:37:19;94333.41;;;-0.61;100.00
7918;BME280;4004;42.624;23.386;2023-12-20T03:39:46;94336.97;;;-0.76;100.00
7918;BME280;4004;42.624;23.386;2023-12-20T03:42:13;94323.09;;;-0.87;100.00
7918;BME280;4004;42.624;23.386;2023-12-20T03:44:39;94323.13;;;-0.92;100.00
7918;BME280;4004;42.624;23.386;2023-12-20T03:47:06;94330.00;;;-0.96;100.00
7918;BME280;4004;42.624;23.386;2023-12-20T03:49:35;94323.09;;;-0.87;100.00
7918;BME280;4004;42.624;23.386;2023-12-20T03:52:03;94329.38;;;-0.82;100.00
7918;BME280;4004;42.624;23.386;2023-12-20T03:54:29;94319.03;;;-0.79;100.00
7918;BME280;4004;42.624;23.386;2023-12-20T03:56:56;94322.44;;;-0.73;100.00
7918;BME280;4004;42.624;23.386;2023-12-20T03:59:23;94312.16;;;-0.75;100.00
7918;BME280;4004;42.624;23.386;2023-12-20T04:01:50;94318.97;;;-0.69;100.00
7918;BME280;4004;42.624;23.386;2023-12-20T04:04:17;94303.63;;;-0.67;100.00
7918;BME280;4004;42.624;23.386;2023-12-20T04:06:45;94312.03;;;-0.65;100.00
7918;BME280;4004;42.624;23.386;2023-12-20T04:09:12;94312.84;;;-0.64;100.00
7918;BME280;4004;42.624;23.386;2023-12-20T04:11:39;94303.28;;;-0.60;100.00
7918;BME280;4004;42.624;23.386;2023-12-20T04:14:05;94304.78;;;-0.54;100.00
7918;BME280;4004;42.624;23.386;2023-12-20T04:16:32;94303.78;;;-0.58;100.00
7918;BME280;4004;42.624;23.386;2023-12-20T04:18:59;94298.09;;;-0.70;100.00
7918;BME280;4004;42.624;23.386;2023-12-20T04:21:26;94297.34;;;-0.76;100.00
7918;BME280;4004;42.624;23.386;2023-12-20T04:23:54;94299.53;;;-0.83;100.00
7918;BME280;4004;42.624;23.386;2023-12-20T04:26:21;94294.78;;;-0.81;100.00
7918;BME280;4004;42.624;23.386;2023-12-20T04:28:48;94285.38;;;-0.92;100.00
7918;BME280;4004;42.624;23.386;2023-12-20T04:31:15;94290.66;;;-0.92;100.00
7918;BME280;4004;42.624;23.386;2023-12-20T04:33:42;94286.94;;;-0.91;100.00
7918;BME280;4004;42.624;23.386;2023-12-20T04:36:09;94282.47;;;-0.91;100.00
7918;BME280;4004;42.624;23.386;2023-12-20T04:38:36;94278.31;;;-0.97;100.00
7918;BME280;4004;42.624;23.386;2023-12-20T04:41:04;94270.13;;;-0.95;100.00
7918;BME280;4004;42.624;23.386;2023-12-20T04:43:31;94277.22;;;-0.96;100.00
7918;BME280;4004;42.624;23.386;2023-12-20T04:45:58;94275.75;;;-1.07;100.00
7918;BME280;4004;42.624;23.386;2023-12-20T04:48:25;94275.53;;;-1.11;100.00
7918;BME280;4004;42.624;23.386;2023-12-20T04:50:52;94274.19;;;-1.08;100.00
7918;BME280;4004;42.624;23.386;2023-12-20T04:53:19;94264.03;;;-1.25;100.00
7918;BME280;4004;42.624;23.386;2023-12-20T04:55:45;94275.66;;;-1.26;100.00
7918;BME280;4004;42.624;23.386;2023-12-20T04:58:14;94267.19;;;-1.23;100.00
7918;BME280;4004;42.624;23.386;2023-12-20T05:00:41;94273.47;;;-1.19;100.00
7918;BME280;4004;42.624;23.386;2023-12-20T05:03:07;94273.16;;;-1.12;100.00
7918;BME280;4004;42.624;23.386;2023-12-20T05:05:34;94261.84;;;-1.18;100.00
7918;BME280;4004;42.624;23.386;2023-12-20T05:08:01;94270.28;;;-1.16;100.00
7918;BME280;4004;42.624;23.386;2023-12-20T05:10:29;94263.00;;;-1.29;100.00
7918;BME280;4004;42.624;23.386;2023-12-20T05:12:56;94268.78;;;-1.22;100.00
7918;BME280;4004;42.624;23.386;2023-12-20T05:15:24;94254.94;;;-1.43;100.00
7918;BME280;4004;42.624;23.386;2023-12-20T05:17:51;94257.19;;;-1.60;100.00
7918;BME280;4004;42.624;23.386;2023-12-20T05:20:18;94261.94;;;-1.62;100.00
7918;BME280;4004;42.624;23.386;2023-12-20T05:22:45;94250.41;;;-1.72;100.00
7918;BME280;4004;42.624;23.386;2023-12-20T05:25:12;94256.59;;;-1.86;100.00
7918;BME280;4004;42.624;23.386;2023-12-20T05:27:39;94247.34;;;-1.84;100.00
7918;BME280;4004;42.624;23.386;2023-12-20T05:30:07;94247.09;;;-1.88;100.00
7918;BME280;4004;42.624;23.386;2023-12-20T05:32:35;94243.72;;;-1.93;100.00
7918;BME280;4004;42.624;23.386;2023-12-20T05:35:03;94243.75;;;-1.98;100.00
7918;BME280;4004;42.624;23.386;2023-12-20T05:37:30;94248.53;;;-2.05;100.00
7918;BME280;4004;42.624;23.386;2023-12-20T05:39:57;94243.28;;;-2.11;100.00
7918;BME280;4004;42.624;23.386;2023-12-20T05:42:24;94241.41;;;-2.05;100.00
7918;BME280;4004;42.624;23.386;2023-12-20T05:44:51;94241.09;;;-1.98;100.00
7918;BME280;4004;42.624;23.386;2023-12-20T05:47:18;94246.38;;;-1.93;100.00
7918;BME280;4004;42.624;23.386;2023-12-20T05:49:46;94237.63;;;-1.89;100.00
7918;BME280;4004;42.624;23.386;2023-12-20T05:52:13;94243.41;;;-1.86;100.00
7918;BME280;4004;42.624;23.386;2023-12-20T05:54:40;94236.28;;;-1.86;100.00
7918;BME280;4004;42.624;23.386;2023-12-20T05:57:07;94225.72;;;-1.81;100.00
7918;BME280;4004;42.624;23.386;2023-12-20T05:59:33;94230.47;;;-1.83;100.00
7918;BME280;4004;42.624;23.386;2023-12-20T06:02:00;94228.59;;;-1.82;100.00
7918;BME280;4004;42.624;23.386;2023-12-20T06:04:27;94225.50;;;-1.84;100.00
7918;BME280;4004;42.624;23.386;2023-12-20T06:06:55;94214.66;;;-1.83;100.00
7918;BME280;4004;42.624;23.386;2023-12-20T06:09:22;94222.03;;;-1.85;100.00
7918;BME280;4004;42.624;23.386;2023-12-20T06:11:49;94220.53;;;-1.96;100.00
7918;BME280;4004;42.624;23.386;2023-12-20T06:14:16;94221.41;;;-2.06;100.00
7918;BME280;4004;42.624;23.386;2023-12-20T06:16:43;94226.41;;;-2.10;100.00
7918;BME280;4004;42.624;23.386;2023-12-20T06:19:10;94229.06;;;-2.10;100.00
7918;BME280;4004;42.624;23.386;2023-12-20T06:21:37;94230.59;;;-2.03;100.00
7918;BME280;4004;42.624;23.386;2023-12-20T06:24:06;94239.84;;;-2.06;100.00
7918;BME280;4004;42.624;23.386;2023-12-20T06:26:33;94233.75;;;-2.01;100.00
7918;BME280;4004;42.624;23.386;2023-12-20T06:28:59;94233.66;;;-1.86;100.00
7918;BME280;4004;42.624;23.386;2023-12-20T06:31:26;94240.94;;;-1.73;100.00
7918;BME280;4004;42.624;23.386;2023-12-20T06:33:53;94240.00;;;-1.53;100.00
7918;BME280;4004;42.624;23.386;2023-12-20T06:36:23;94233.66;;;-1.22;100.00
7918;BME280;4004;42.624;23.386;2023-12-20T06:38:50;94237.13;;;-0.98;100.00
7918;BME280;4004;42.624;23.386;2023-12-20T06:41:18;94230.69;;;-0.63;100.00
7918;BME280;4004;42.624;23.386;2023-12-20T06:43:45;94236.78;;;-0.19;100.00
7918;BME280;4004;42.624;23.386;2023-12-20T06:46:12;94224.41;;;0.33;100.00
7918;BME280;4004;42.624;23.386;2023-12-20T06:48:39;94196.91;;;0.67;100.00
7918;BME280;4004;42.624;23.386;2023-12-20T06:51:06;94207.47;;;1.14;100.00
7918;BME280;4004;42.624;23.386;2023-12-20T06:53:33;94202.66;;;1.43;100.00
7918;BME280;4004;42.624;23.386;2023-12-20T06:56:00;94209.72;;;1.76;100.00
7918;BME280;4004;42.624;23.386;2023-12-20T06:58:29;94200.03;;;2.07;100.00
7918;BME280;4004;42.624;23.386;2023-12-20T07:00:56;94188.47;;;2.48;100.00
7918;BME280;4004;42.624;23.386;2023-12-20T07:03:23;94187.47;;;2.89;100.00
7918;BME280;4004;42.624;23.386;2023-12-20T07:05:50;94180.84;;;3.09;100.00
7918;BME280;4004;42.624;23.386;2023-12-20T07:08:17;94172.03;;;3.31;100.00
7918;BME280;4004;42.624;23.386;2023-12-20T07:10:44;94168.97;;;3.56;100.00
7918;BME280;4004;42.624;23.386;2023-12-20T07:13:11;94161.75;;;3.39;100.00
7918;BME280;4004;42.624;23.386;2023-12-20T07:15:41;94153.03;;;3.07;100.00
7918;BME280;4004;42.624;23.386;2023-12-20T07:18:08;94165.00;;;2.96;100.00
7918;BME280;4004;42.624;23.386;2023-12-20T07:20:34;94160.16;;;3.38;100.00
7918;BME280;4004;42.624;23.386;2023-12-20T07:23:01;94166.50;;;3.77;100.00
7918;BME280;4004;42.624;23.386;2023-12-20T07:25:28;94155.00;;;2.93;100.00
7918;BME280;4004;42.624;23.386;2023-12-20T07:27:57;94151.69;;;2.56;100.00
7918;BME280;4004;42.624;23.386;2023-12-20T07:30:24;94146.84;;;2.58;100.00
7918;BME280;4004;42.624;23.386;2023-12-20T07:32:53;94149.78;;;2.25;100.00
7918;BME280;4004;42.624;23.386;2023-12-20T07:35:19;94144.63;;;2.06;100.00
7918;BME280;4004;42.624;23.386;2023-12-20T07:37:46;94153.59;;;1.96;100.00
7918;BME280;4004;42.624;23.386;2023-12-20T07:40:13;94149.00;;;1.88;100.00
7918;BME280;4004;42.624;23.386;2023-12-20T07:42:42;94157.91;;;1.70;100.00
7918;BME280;4004;42.624;23.386;2023-12-20T07:45:09;94163.22;;;1.56;100.00
7918;BME280;4004;42.624;23.386;2023-12-20T07:47:37;94162.25;;;1.24;100.00
7918;BME280;4004;42.624;23.386;2023-12-20T07:50:06;94150.50;;;1.16;100.00
7918;BME280;4004;42.624;23.386;2023-12-20T07:52:33;94153.81;;;1.08;100.00
7918;BME280;4004;42.624;23.386;2023-12-20T07:55:00;94152.66;;;1.00;100.00
7918;BME280;4004;42.624;23.386;2023-12-20T07:57:28;94156.56;;;0.89;100.00
7918;BME280;4004;42.624;23.386;2023-12-20T07:59:55;94158.63;;;0.92;100.00
7918;BME280;4004;42.624;23.386;2023-12-20T08:02:22;94170.47;;;0.95;100.00
7918;BME280;4004;42.624;23.386;2023-12-20T08:04:49;94155.09;;;0.97;100.00
7918;BME280;4004;42.624;23.386;2023-12-20T08:07:17;94154.09;;;1.07;100.00
7918;BME280;4004;42.624;23.386;2023-12-20T08:09:44;94151.66;;;1.10;100.00
7918;BME280;4004;42.624;23.386;2023-12-20T08:12:11;94149.63;;;1.07;100.00
7918;BME280;4004;42.624;23.386;2023-12-20T08:14:38;94139.03;;;1.07;100.00
7918;BME280;4004;42.624;23.386;2023-12-20T08:17:05;94136.16;;;1.17;100.00
7918;BME280;4004;42.624;23.386;2023-12-20T08:19:32;94129.19;;;1.21;100.00
7918;BME280;4004;42.624;23.386;2023-12-20T08:21:59;94144.19;;;1.26;100.00
7918;BME280;4004;42.624;23.386;2023-12-20T08:24:27;94138.00;;;1.44;100.00
7918;BME280;4004;42.624;23.386;2023-12-20T08:26:54;94143.63;;;1.29;100.00
7918;BME280;4004;42.624;23.386;2023-12-20T08:29:21;94134.38;;;1.27;100.00
7918;BME280;4004;42.624;23.386;2023-12-20T08:31:52;94128.50;;;1.30;100.00
7918;BME280;4004;42.624;23.386;2023-12-20T08:34:19;94128.13;;;1.36;100.00
7918;BME280;4004;42.624;23.386;2023-12-20T08:36:46;94127.50;;;1.39;100.00
7918;BME280;4004;42.624;23.386;2023-12-20T08:39:13;94114.09;;;1.36;100.00
7918;BME280;4004;42.624;23.386;2023-12-20T08:41:41;94114.09;;;1.36;100.00
7918;BME280;4004;42.624;23.386;2023-12-20T08:44:08;94105.75;;;1.42;100.00
7918;BME280;4004;42.624;23.386;2023-12-20T08:46:35;94104.56;;;1.35;100.00
7918;BME280;4004;42.624;23.386;2023-12-20T08:49:02;94111.84;;;1.29;100.00
7918;BME280;4004;42.624;23.386;2023-12-20T08:51:29;94112.25;;;1.22;100.00
7918;BME280;4004;42.624;23.386;2023-12-20T08:53:56;94112.63;;;1.30;100.00
7918;BME280;4004;42.624;23.386;2023-12-20T08:56:23;94106.53;;;1.43;100.00
7918;BME280;4004;42.624;23.386;2023-12-20T08:58:51;94098.16;;;1.50;100.00
7918;BME280;4004;42.624;23.386;2023-12-20T09:01:18;94087.50;;;1.41;100.00
7918;BME280;4004;42.624;23.386;2023-12-20T09:03:45;94098.28;;;1.31;100.00
7918;BME280;4004;42.624;23.386;2023-12-20T09:06:12;94080.13;;;1.38;100.00
7918;BME280;4004;42.624;23.386;2023-12-20T09:08:39;94070.94;;;1.21;100.00
7918;BME280;4004;42.624;23.386;2023-12-20T09:11:06;94060.50;;;1.39;100.00
7918;BME280;4004;42.624;23.386;2023-12-20T09:13:33;94067.56;;;1.43;100.00
7918;BME280;4004;42.624;23.386;2023-12-20T09:16:02;94045.34;;;1.53;100.00
7918;BME280;4004;42.624;23.386;2023-12-20T09:18:29;94037.66;;;1.43;100.00
7918;BME280;4004;42.624;23.386;2023-12-20T09:20:56;94028.31;;;1.09;100.00
7918;BME280;4004;42.624;23.386;2023-12-20T09:23:23;94042.91;;;1.20;100.00
7918;BME280;4004;42.624;23.386;2023-12-20T09:25:50;94030.84;;;1.14;100.00
7918;BME280;4004;42.624;23.386;2023-12-20T09:28:17;94032.31;;;1.07;100.00
7918;BME280;4004;42.624;23.386;2023-12-20T09:30:44;94025.75;;;1.04;100.00
7918;BME280;4004;42.624;23.386;2023-12-20T09:33:13;94014.28;;;1.09;100.00
7918;BME280;4004;42.624;23.386;2023-12-20T09:35:40;94007.09;;;1.23;100.00
7918;BME280;4004;42.624;23.386;2023-12-20T09:38:07;93998.13;;;1.33;100.00
7918;BME280;4004;42.624;23.386;2023-12-20T09:40:34;93995.13;;;1.26;100.00
7918;BME280;4004;42.624;23.386;2023-12-20T09:43:04;93996.66;;;1.27;100.00
7918;BME280;4004;42.624;23.386;2023-12-20T09:45:31;93990.97;;;1.33;100.00
7918;BME280;4004;42.624;23.386;2023-12-20T09:47:58;93983.34;;;1.54;100.00
7918;BME280;4004;42.624;23.386;2023-12-20T09:50:27;93985.69;;;1.78;100.00
7918;BME280;4004;42.624;23.386;2023-12-20T09:52:57;93982.47;;;1.90;100.00
7918;BME280;4004;42.624;23.386;2023-12-20T09:55:25;93988.22;;;2.15;100.00
7918;BME280;4004;42.624;23.386;2023-12-20T09:57:53;93979.13;;;2.38;100.00
7918;BME280;4004;42.624;23.386;2023-12-20T10:00:20;93968.41;;;2.52;100.00
7918;BME280;4004;42.624;23.386;2023-12-20T10:02:50;93957.47;;;2.54;100.00
7918;BME280;4004;42.624;23.386;2023-12-20T10:05:28;93954.38;;;2.69;100.00
7918;BME280;4004;42.624;23.386;2023-12-20T10:07:55;93936.94;;;2.94;100.00
7918;BME280;4004;42.624;23.386;2023-12-20T10:10:22;93931.66;;;3.03;100.00
7918;BME280;4004;42.624;23.386;2023-12-20T10:13:02;93935.69;;;3.18;100.00
7918;BME280;4004;42.624;23.386;2023-12-20T10:15:29;93933.97;;;3.22;100.00
7918;BME280;4004;42.624;23.386;2023-12-20T10:17:56;93930.72;;;3.07;100.00
7918;BME280;4004;42.624;23.386;2023-12-20T10:20:23;93931.00;;;2.88;100.00
7918;BME280;4004;42.624;23.386;2023-12-20T10:22:52;93923.50;;;2.90;100.00
7918;BME280;4004;42.624;23.386;2023-12-20T10:25:20;93922.28;;;3.14;100.00
7918;BME280;4004;42.624;23.386;2023-12-20T10:27:47;93921.16;;;3.15;100.00
7918;BME280;4004;42.624;23.386;2023-12-20T10:30:14;93916.47;;;2.95;100.00
7918;BME280;4004;42.624;23.386;2023-12-20T10:32:41;93917.41;;;2.90;100.00
7918;BME280;4004;42.624;23.386;2023-12-20T10:35:09;93908.50;;;2.86;100.00
7918;BME280;4004;42.624;23.386;2023-12-20T10:37:36;93907.22;;;2.66;100.00
7918;BME280;4004;42.624;23.386;2023-12-20T10:40:05;93905.81;;;2.60;100.00
7918;BME280;4004;42.624;23.386;2023-12-20T10:42:32;93897.06;;;2.59;100.00
7918;BME280;4004;42.624;23.386;2023-12-20T10:45:01;93892.94;;;2.27;100.00
7918;BME280;4004;42.624;23.386;2023-12-20T10:47:30;93881.50;;;2.09;100.00
7918;BME280;4004;42.624;23.386;2023-12-20T10:49:59;93882.41;;;1.96;100.00
7918;BME280;4004;42.624;23.386;2023-12-20T10:52:29;93891.91;;;1.97;100.00
7918;BME280;4004;42.624;23.386;2023-12-20T10:54:58;93888.69;;;1.77;100.00
7918;BME280;4004;42.624;23.386;2023-12-20T10:57:27;93897.75;;;1.76;100.00
7918;BME280;4004;42.624;23.386;2023-12-20T10:59:57;93879.63;;;1.70;100.00
7918;BME280;4004;42.624;23.386;2023-12-20T11:02:25;93882.03;;;1.57;100.00
7918;BME280;4004;42.624;23.386;2023-12-20T11:04:56;93872.13;;;1.63;100.00
7918;BME280;4004;42.624;23.386;2023-12-20T11:07:31;93868.81;;;1.57;100.00
7918;BME280;4004;42.624;23.386;2023-12-20T11:10:02;93870.59;;;1.71;100.00
7918;BME280;4004;42.624;23.386;2023-12-20T11:12:38;93858.16;;;1.80;100.00
7918;BME280;4004;42.624;23.386;2023-12-20T11:15:08;93860.19;;;1.83;100.00
7918;BME280;4004;42.624;23.386;2023-12-20T11:17:35;93839.44;;;1.76;100.00
7918;BME280;4004;42.624;23.386;2023-12-20T11:20:07;93853.00;;;1.75;100.00
7918;BME280;4004;42.624;23.386;2023-12-20T11:22:36;93840.69;;;1.79;100.00
7918;BME280;4004;42.624;23.386;2023-12-20T11:25:07;93837.09;;;1.75;100.00
7918;BME280;4004;42.624;23.386;2023-12-20T11:27:37;93831.44;;;1.68;100.00
7918;BME280;4004;42.624;23.386;2023-12-20T11:30:08;93831.97;;;1.78;100.00
7918;BME280;4004;42.624;23.386;2023-12-20T11:32:36;93817.91;;;1.78;100.00
7918;BME280;4004;42.624;23.386;2023-12-20T11:35:17;93820.13;;;1.76;100.00
7918;BME280;4004;42.624;23.386;2023-12-20T11:37:45;93810.84;;;1.56;100.00
7918;BME280;4004;42.624;23.386;2023-12-20T11:40:15;93806.56;;;1.46;100.00
7918;BME280;4004;42.624;23.386;2023-12-20T11:42:44;93807.81;;;1.49;100.00
7918;BME280;4004;42.624;23.386;2023-12-20T11:45:13;93794.28;;;1.50;100.00
7918;BME280;4004;42.624;23.386;2023-12-20T11:47:42;93791.78;;;1.45;100.00
7918;BME280;4004;42.624;23.386;2023-12-20T11:50:09;93793.09;;;1.65;100.00
7918;BME280;4004;42.624;23.386;2023-12-20T11:52:36;93790.97;;;1.76;100.00
7918;BME280;4004;42.624;23.386;2023-12-20T11:55:04;93791.63;;;1.90;100.00
7918;BME280;4004;42.624;23.386;2023-12-20T11:57:31;93778.69;;;1.97;100.00
7918;BME280;4004;42.624;23.386;2023-12-20T12:00:00;93760.75;;;1.94;100.00
7918;BME280;4004;42.624;23.386;2023-12-20T12:02:27;93774.66;;;2.08;100.00
7918;BME280;4004;42.624;23.386;2023-12-20T12:04:54;93770.94;;;2.18;100.00
7918;BME280;4004;42.624;23.386;2023-12-20T12:07:22;93748.91;;;2.18;100.00
7918;BME280;4004;42.624;23.386;2023-12-20T12:09:49;93744.56;;;2.22;100.00
7918;BME280;4004;42.624;23.386;2023-12-20T12:12:17;93743.94;;;2.25;100.00
7918;BME280;4004;42.624;23.386;2023-12-20T12:14:44;93735.19;;;2.24;100.00
7918;BME280;4004;42.624;23.386;2023-12-20T12:17:13;93740.81;;;2.32;100.00
7918;BME280;4004;42.624;23.386;2023-12-20T12:19:41;93733.00;;;2.35;100.00
7918;BME280;4004;42.624;23.386;2023-12-20T12:22:09;93739.25;;;2.48;100.00
7918;BME280;4004;42.624;23.386;2023-12-20T12:24:39;93730.53;;;2.56;100.00
7918;BME280;4004;42.624;23.386;2023-12-20T12:27:06;93720.97;;;2.55;100.00
7918;BME280;4004;42.624;23.386;2023-12-20T12:29:33;93718.97;;;2.61;100.00
7918;BME280;4004;42.624;23.386;2023-12-20T12:32:01;93717.84;;;2.70;100.00
7918;BME280;4004;42.624;23.386;2023-12-20T12:34:29;93715.66;;;2.81;100.00
7918;BME280;4004;42.624;23.386;2023-12-20T12:36:56;93701.59;;;2.81;100.00
7918;BME280;4004;42.624;23.386;2023-12-20T12:39:24;93707.38;;;2.83;100.00
7918;BME280;4004;42.624;23.386;2023-12-20T12:41:52;93702.53;;;2.85;100.00
7918;BME280;4004;42.624;23.386;2023-12-20T12:44:19;93692.19;;;2.92;100.00
7918;BME280;4004;42.624;23.386;2023-12-20T12:46:49;93689.09;;;2.81;100.00
7918;BME280;4004;42.624;23.386;2023-12-20T12:49:16;93708.59;;;2.94;100.00
7918;BME280;4004;42.624;23.386;2023-12-20T12:51:44;93698.09;;;2.98;100.00
7918;BME280;4004;42.624;23.386;2023-12-20T12:54:12;93689.66;;;3.04;100.00
7918;BME280;4004;42.624;23.386;2023-12-20T12:56:41;93695.41;;;3.06;100.00
7918;BME280;4004;42.624;23.386;2023-12-20T12:59:08;93693.84;;;3.14;100.00
7918;BME280;4004;42.624;23.386;2023-12-20T13:01:35;93703.25;;;3.03;100.00
7918;BME280;4004;42.624;23.386;2023-12-20T13:04:02;93710.00;;;3.00;100.00
7918;BME280;4004;42.624;23.386;2023-12-20T13:06:32;93699.06;;;2.93;100.00